Home   Weather   Germany   Gross-Gerau   Past weeks
Flag for Germany

Past Weather in Gross-Gerau, Hesse, Germany — Yesterday and Last 2 Weeks

Currently: 59 °F. Passing clouds. (Weather station: Frankfurt-M-Flughafen Airport, Germany). See more current weather

Past Weather in Gross-Gerau — Graph

°F

Gross-Gerau Temperature Yesterday

Maximum temperature yesterday: 75 °F (at 5:50 pm)
Minimum temperature yesterday: 59 °F (at 3:50 am)
Average temperature yesterday: 67 °F

High & Low Weather Summary for the Past Weeks

 TemperatureHumidityPressure
High84 °F (Jul 18, 4:20 pm)100% (Jul 25, 2:50 am)30.21 "Hg (Jul 25, 2:50 am)
Low52 °F (Jul 30, 4:50 am)35% (Jul 23, 5:20 pm)29.74 "Hg (Jul 30, 4:20 pm)
Average69 °F67%29.99 "Hg
* Reported Jul 17 3:20 am — Aug 1 3:20 am, Gross-Gerau. Weather by CustomWeather, © 2021

Note: Actual official high and low records may vary slightly from our data, if they occured in-between our weather recording intervals... More about our weather records

Gross-Gerau Weather History for the Previous 24 Hours

Scroll right to see more
 ConditionsComfort  
Time TempWeatherWind HumidityBarometerVisibility
3:20 am
Sun, Aug 1
59 °FPassing clouds.2 mph82%29.80 "HgN/A
2:50 am59 °FClear.5 mph82%29.80 "Hg10 mi
1:20 am59 °FClear.1 mph82%29.83 "Hg10 mi
12:50 am59 °FClear.2 mph82%29.83 "Hg10 mi
11:50 pm
Sat, Jul 31
59 °FClear.3 mph77%29.83 "Hg10 mi
11:20 pm59 °FClear.1 mph77%29.83 "Hg10 mi
10:50 pm61 °FPassing clouds.3 mph77%29.83 "HgN/A
10:20 pm61 °FPassing clouds.5 mph72%29.83 "HgN/A
9:20 pm64 °FClear.3 mph64%29.83 "Hg10 mi
8:50 pm66 °FSunny.6 mph60%29.83 "Hg10 mi
8:20 pm70 °FSunny.8 mph50%29.83 "Hg10 mi
7:50 pm72 °FPassing clouds.8 mph47%29.83 "HgN/A
7:20 pm73 °FPassing clouds.8 mph44%29.83 "HgN/A
6:50 pm73 °FSunny.8 mph41%29.83 "Hg10 mi
6:20 pm73 °FPassing clouds.10 mph41%29.83 "HgN/A
5:50 pm75 °FSunny.13 mph39%29.83 "Hg10 mi
5:20 pm73 °FPassing clouds.13 mph44%29.83 "HgN/A
4:50 pm73 °FPassing clouds.14 mph44%29.83 "HgN/A
4:20 pm73 °FSunny.15 mph44%29.83 "Hg10 mi
3:50 pm73 °FSunny.14 mph41%29.83 "Hg10 mi
3:20 pm72 °FSunny.16 mph44%29.83 "Hg10 mi
2:50 pm73 °FSunny.16 mph44%29.83 "Hg10 mi
2:20 pm72 °FPassing clouds.15 mph47%29.83 "HgN/A
1:50 pm72 °FSunny.16 mph47%29.83 "Hg10 mi
1:20 pm72 °FPassing clouds.15 mph47%29.83 "HgN/A
12:50 pm73 °FScattered clouds.16 mph44%29.83 "HgN/A
12:20 pm72 °FScattered clouds.14 mph47%29.83 "HgN/A
11:50 am72 °FScattered clouds.16 mph47%29.83 "HgN/A
11:20 am70 °FScattered clouds.14 mph53%29.83 "HgN/A
10:50 am70 °FScattered clouds.16 mph53%29.83 "HgN/A
10:20 am68 °FScattered clouds.17 mph56%29.83 "HgN/A
9:50 am68 °FPassing clouds.15 mph56%29.83 "HgN/A
9:20 am66 °FPassing clouds.16 mph60%29.83 "HgN/A
8:50 am64 °FPassing clouds.17 mph64%29.83 "HgN/A
8:20 am64 °FPassing clouds.15 mph64%29.83 "HgN/A
7:50 am63 °FSunny.13 mph68%29.83 "Hg10 mi
7:20 am61 °FSunny.12 mph68%29.83 "Hg10 mi
6:50 am59 °FSunny.10 mph72%29.83 "Hg10 mi
6:20 am59 °FSunny.13 mph72%29.83 "Hg10 mi
5:50 am59 °FClear.10 mph77%29.83 "Hg10 mi
5:20 am59 °FClear.12 mph72%29.83 "Hg10 mi
4:50 am59 °FClear.10 mph72%29.83 "Hg10 mi
4:20 am59 °FClear.9 mph77%29.83 "Hg10 mi
Weather by CustomWeather, © 2021

See weather overview